Time;durP1;ratioP1;P1;durP2;ratioP2;P2;SDS_P1;SDS_P2;PMS_P1;PMS_P2;Temp;Humidity;BMP_temperature;BMP_pressure;BME280_temperature;BME280_humidity;BME280_pressure;Samples;Min_cycle;Max_cycle;Signal;HPM_P1;HPM_P2
2021/12/16 00:06:54;;;;;;;37.80;24.65;;;12.70;76.60;;;;;;5031201;28;20144;-47
2021/12/16 00:09:13;;;;;;;38.63;24.65;;;12.70;76.60;;;;;;5039844;28;20041;-52
2021/12/16 00:33:32;;;;;;;37.97;24.10;;;12.60;76.80;;;;;;5012352;28;20099;-51
2021/12/16 00:36:03;;;;;;;37.00;25.00;;;12.60;76.80;;;;;;5039815;28;20116;-48
2021/12/16 00:38:31;;;;;;;37.17;23.85;;;12.60;76.80;;;;;;5014100;28;20046;-52
2021/12/16 00:41:01;;;;;;;39.88;24.48;;;12.60;76.80;;;;;;5030669;28;20045;-50
2021/12/16 00:43:43;;;;;;;40.45;23.75;;;12.60;76.90;;;;;;5041083;28;20099;-48
2021/12/16 00:46:17;;;;;;;36.55;23.48;;;12.60;76.90;;;;;;5032988;28;20048;-49
2021/12/16 00:54:10;;;;;;;39.95;24.35;;;12.60;76.90;;;;;;5042828;28;20033;-51
2021/12/16 00:56:40;;;;;;;37.70;23.30;;;12.60;76.90;;;;;;5027472;28;20044;-52
2021/12/16 00:59:10;;;;;;;40.50;25.15;;;12.60;77.40;;;;;;5012820;28;20487;-50
2021/12/16 01:01:54;;;;;;;38.33;23.80;;;12.60;76.80;;;;;;5024660;28;20075;-51
2021/12/16 01:36:07;;;;;;;38.72;23.65;;;12.60;76.70;;;;;;5049506;28;20063;-47
2021/12/16 01:50:00;;;;;;;35.30;23.13;;;12.60;76.70;;;;;;5023296;28;20043;-49
2021/12/16 01:55:32;;;;;;;36.22;23.85;;;12.60;76.80;;;;;;5023848;28;20046;-49
2021/12/16 01:58:13;;;;;;;37.45;23.27;;;12.60;76.80;;;;;;5044510;28;20037;-51
2021/12/16 02:01:11;;;;;;;39.55;25.23;;;12.60;76.80;;;;;;5025907;28;20415;-50
2021/12/16 02:03:46;;;;;;;39.20;25.10;;;12.60;76.80;;;;;;5023583;28;20056;-48
2021/12/16 02:09:28;;;;;;;39.42;24.23;;;12.60;76.80;;;;;;5042490;28;20525;-52
2021/12/16 02:12:11;;;;;;;40.63;23.13;;;12.60;76.80;;;;;;5015261;28;20465;-52
2021/12/16 02:34:17;;;;;;;37.20;24.77;;;12.60;76.90;;;;;;5008012;28;20044;-52
2021/12/16 02:36:43;;;;;;;36.15;24.85;;;12.50;76.90;;;;;;5030895;28;20042;-52
2021/12/16 02:39:24;;;;;;;41.72;25.30;;;12.60;76.90;;;;;;5047746;28;20045;-51
2021/12/16 02:42:17;;;;;;;37.80;24.50;;;12.60;77.60;;;;;;4997579;28;20053;-48
2021/12/16 02:50:24;;;;;;;39.75;25.38;;;12.60;76.90;;;;;;5028081;28;20038;-48
2021/12/16 02:52:51;;;;;;;40.40;25.40;;;12.60;76.80;;;;;;5026163;28;20034;-49
2021/12/16 02:55:20;;;;;;;41.65;24.33;;;12.60;76.90;;;;;;5021614;28;20562;-49
2021/12/16 02:57:56;;;;;;;40.17;26.42;;;12.50;76.80;;;;;;5027227;28;20063;-49
2021/12/16 03:00:23;;;;;;;42.90;25.33;;;12.60;76.90;;;;;;5035552;28;20044;-49
2021/12/16 03:02:52;;;;;;;38.13;24.30;;;12.60;76.90;;;;;;5018472;28;20042;-48
2021/12/16 03:05:21;;;;;;;41.47;25.58;;;12.50;76.90;;;;;;5019131;28;20099;-52
2021/12/16 03:07:49;;;;;;;38.33;25.38;;;12.60;76.90;;;;;;5015994;28;20048;-48
2021/12/16 03:20:50;;;;;;;36.53;24.00;;;12.60;76.80;;;;;;5011087;28;20041;-48
2021/12/16 03:29:10;;;;;;;38.97;24.10;;;12.50;76.70;;;;;;5034843;28;20500;-49
2021/12/16 03:32:17;;;;;;;34.80;23.52;;;12.50;76.70;;;;;;5015372;28;20076;-49
2021/12/16 03:35:02;;;;;;;38.60;23.50;;;12.50;76.60;;;;;;5026980;28;20037;-49
2021/12/16 03:37:31;;;;;;;33.90;22.75;;;12.50;76.60;;;;;;5034096;28;20053;-48
2021/12/16 03:40:13;;;;;;;39.05;23.73;;;12.50;76.70;;;;;;5011255;28;20042;-50
2021/12/16 03:42:51;;;;;;;41.05;24.20;;;12.40;76.70;;;;;;5021881;28;20506;-52
2021/12/16 03:48:17;;;;;;;39.67;23.67;;;12.40;76.80;;;;;;5034510;28;20045;-48
2021/12/16 03:50:44;;;;;;;40.38;25.42;;;12.40;76.80;;;;;;5020165;28;20571;-47
2021/12/16 03:53:14;;;;;;;37.38;24.98;;;12.40;76.90;;;;;;5025584;28;20042;-49
2021/12/16 03:55:42;;;;;;;42.72;25.60;;;12.40;77.00;;;;;;5033409;28;20076;-47
2021/12/16 03:58:10;;;;;;;41.55;24.90;;;12.40;77.00;;;;;;5019582;28;20099;-53
2021/12/16 04:00:47;;;;;;;41.05;26.05;;;12.40;77.00;;;;;;5026336;28;20065;-52
2021/12/16 04:03:14;;;;;;;40.88;25.75;;;12.40;77.10;;;;;;5025799;28;20052;-52
2021/12/16 04:05:42;;;;;;;39.30;25.98;;;12.40;77.10;;;;;;5023765;28;20042;-48
2021/12/16 04:08:09;;;;;;;38.13;25.70;;;12.40;77.00;;;;;;5018201;28;20053;-52
2021/12/16 04:10:54;;;;;;;43.20;25.73;;;12.30;76.90;;;;;;5025764;28;20037;-48
2021/12/16 04:13:23;;;;;;;38.25;24.50;;;12.30;76.90;;;;;;5012083;28;20041;-49
2021/12/16 04:15:57;;;;;;;36.40;24.27;;;12.30;76.90;;;;;;5016587;28;20467;-48
2021/12/16 04:18:25;;;;;;;43.15;26.48;;;12.30;76.90;;;;;;5024179;28;20459;-49
2021/12/16 04:20:52;;;;;;;35.47;23.50;;;12.30;77.00;;;;;;5039070;28;20045;-49
2021/12/16 04:23:19;;;;;;;41.85;25.60;;;12.30;77.00;;;;;;5019030;28;20055;-48
2021/12/16 04:25:50;;;;;;;37.90;25.23;;;12.30;77.10;;;;;;5025875;28;20048;-48
2021/12/16 04:28:26;;;;;;;39.63;23.90;;;12.30;77.30;;;;;;5023971;28;20048;-52
2021/12/16 04:30:58;;;;;;;40.08;26.55;;;12.30;77.30;;;;;;5024272;28;20091;-50
2021/12/16 04:33:28;;;;;;;35.67;25.08;;;12.30;77.20;;;;;;5034319;28;20041;-49
2021/12/16 04:35:55;;;;;;;40.72;25.02;;;12.30;77.20;;;;;;5014731;28;20048;-48
2021/12/16 04:38:22;;;;;;;42.38;25.45;;;12.30;77.20;;;;;;5036464;22;20112;-46
2021/12/16 04:40:49;;;;;;;39.05;23.67;;;12.30;77.20;;;;;;5039427;28;20444;-45
2021/12/16 04:43:21;;;;;;;37.70;25.17;;;12.30;77.20;;;;;;5033942;28;20511;-46
2021/12/16 04:45:56;;;;;;;40.28;24.83;;;12.30;77.10;;;;;;5032838;28;20053;-45
2021/12/16 04:48:26;;;;;;;33.85;22.42;;;12.20;76.90;;;;;;5028411;28;22347;-45
2021/12/16 04:50:53;;;;;;;39.50;24.08;;;12.20;76.70;;;;;;5017347;28;20457;-48
2021/12/16 04:53:21;;;;;;;41.97;25.23;;;12.20;76.70;;;;;;5018258;28;20045;-46
2021/12/16 04:55:52;;;;;;;38.17;25.25;;;12.10;76.50;;;;;;5014648;28;20044;-46
2021/12/16 04:58:19;;;;;;;36.90;24.90;;;12.10;76.50;;;;;;5024980;28;20102;-48
2021/12/16 05:00:46;;;;;;;39.70;24.25;;;12.10;76.40;;;;;;5016885;28;20042;-47
2021/12/16 05:03:19;;;;;;;43.63;25.25;;;12.00;76.30;;;;;;5030522;28;20037;-45
2021/12/16 05:05:46;;;;;;;37.78;25.40;;;12.00;76.30;;;;;;5009921;28;20049;-45
2021/12/16 05:08:13;;;;;;;38.28;24.48;;;11.90;76.30;;;;;;5041191;28;20075;-46
2021/12/16 05:10:53;;;;;;;37.22;24.13;;;11.80;76.20;;;;;;5016159;28;20480;-45
2021/12/16 05:13:25;;;;;;;37.30;24.25;;;11.80;76.30;;;;;;5013398;28;20120;-46
2021/12/16 05:15:55;;;;;;;35.15;23.55;;;11.80;76.40;;;;;;5016464;28;20068;-46
2021/12/16 05:18:31;;;;;;;41.45;25.50;;;11.70;76.60;;;;;;5030448;28;20449;-48
2021/12/16 05:21:03;;;;;;;37.38;23.70;;;11.60;76.70;;;;;;5029616;28;20471;-47
2021/12/16 05:26:21;;;;;;;39.97;24.50;;;11.60;77.20;;;;;;5030799;28;20045;-46
2021/12/16 05:29:06;;;;;;;38.83;23.67;;;11.50;77.20;;;;;;5014071;28;20558;-47
2021/12/16 05:31:34;;;;;;;40.65;24.63;;;11.50;77.20;;;;;;5008879;28;20044;-44
2021/12/16 05:34:03;;;;;;;39.30;23.55;;;11.50;77.10;;;;;;5013493;28;20624;-46
2021/12/16 05:36:32;;;;;;;39.67;24.60;;;11.50;77.00;;;;;;5013364;28;20056;-44
2021/12/16 05:39:00;;;;;;;33.30;22.65;;;11.40;76.80;;;;;;5012646;28;20113;-46
2021/12/16 05:41:31;;;;;;;39.95;24.33;;;11.30;76.70;;;;;;5010631;28;20075;-49
2021/12/16 05:43:59;;;;;;;35.28;22.30;;;11.30;76.70;;;;;;5012980;28;20588;-46
2021/12/16 05:46:27;;;;;;;34.15;20.73;;;11.30;76.70;;;;;;5009200;28;20048;-44
2021/12/16 05:48:57;;;;;;;32.00;20.20;;;11.20;76.40;;;;;;5012699;28;20084;-45
2021/12/16 05:51:41;;;;;;;28.05;18.30;;;11.10;76.00;;;;;;5003330;28;20065;-47
2021/12/16 05:54:09;;;;;;;31.45;21.48;;;11.10;75.70;;;;;;5038276;28;20037;-45
2021/12/16 05:56:46;;;;;;;34.35;21.67;;;11.10;75.70;;;;;;5023624;28;20110;-46
2021/12/16 05:59:17;;;;;;;26.27;17.48;;;11.00;75.80;;;;;;5032256;28;20049;-46
2021/12/16 06:01:48;;;;;;;30.75;19.75;;;10.90;75.40;;;;;;5018456;28;20051;-46
2021/12/16 06:04:20;;;;;;;38.53;22.77;;;10.80;75.40;;;;;;5022317;28;20140;-45
2021/12/16 06:06:55;;;;;;;28.38;18.48;;;10.80;75.80;;;;;;5016770;28;20129;-49
2021/12/16 06:09:22;;;;;;;31.23;19.58;;;10.70;76.00;;;;;;5005110;28;20056;-49
2021/12/16 06:11:52;;;;;;;28.95;17.38;;;10.60;75.90;;;;;;5037448;28;20088;-48
2021/12/16 06:28:02;;;;;;;22.92;15.23;;;10.30;74.40;;;;;;5027563;28;20034;-49
2021/12/16 06:30:33;;;;;;;24.25;16.20;;;10.20;74.40;;;;;;5029685;28;20033;-49
2021/12/16 06:33:01;;;;;;;22.70;14.98;;;10.20;74.50;;;;;;5046980;28;20037;-48
2021/12/16 06:35:28;;;;;;;25.25;15.73;;;10.10;74.70;;;;;;5047981;28;20048;-45
2021/12/16 06:37:56;;;;;;;24.35;16.73;;;10.10;74.60;;;;;;5023498;28;20572;-49
2021/12/16 06:40:31;;;;;;;26.90;15.88;;;10.00;74.50;;;;;;5020108;28;20041;-48
2021/12/16 06:43:19;;;;;;;25.23;16.83;;;9.90;74.40;;;;;;5040538;28;20127;-48
2021/12/16 06:45:49;;;;;;;24.05;14.35;;;9.90;74.50;;;;;;5022701;28;20046;-47
2021/12/16 06:48:22;;;;;;;21.77;14.40;;;9.90;74.50;;;;;;5033586;28;20045;-47
2021/12/16 06:51:06;;;;;;;20.08;14.40;;;9.80;74.40;;;;;;5035619;28;20550;-47
2021/12/16 06:53:49;;;;;;;19.30;14.20;;;9.80;74.30;;;;;;5028134;28;20033;-48
2021/12/16 06:56:24;;;;;;;18.15;12.95;;;9.70;74.20;;;;;;5039042;28;20033;-49
2021/12/16 06:59:04;;;;;;;16.63;12.88;;;9.60;74.00;;;;;;5048602;28;20048;-45
2021/12/16 07:01:39;;;;;;;19.65;14.05;;;9.60;73.90;;;;;;5038745;28;20617;-49
2021/12/16 07:04:10;;;;;;;19.73;13.73;;;9.50;73.90;;;;;;5022684;28;20508;-48
2021/12/16 07:06:41;;;;;;;18.65;13.05;;;9.50;74.00;;;;;;5023635;28;20159;-48
2021/12/16 07:09:15;;;;;;;20.55;13.73;;;9.50;74.30;;;;;;5040883;28;20393;-48
2021/12/16 07:11:47;;;;;;;20.98;13.93;;;9.50;74.30;;;;;;5031933;28;20043;-47
2021/12/16 07:14:16;;;;;;;17.42;12.35;;;9.40;74.30;;;;;;5025880;28;20092;-49
2021/12/16 07:16:45;;;;;;;20.33;13.57;;;9.40;74.50;;;;;;5023911;28;20049;-45
2021/12/16 07:19:12;;;;;;;18.00;12.20;;;9.40;74.70;;;;;;5039434;28;20807;-49
2021/12/16 07:21:40;;;;;;;20.67;14.60;;;9.40;74.70;;;;;;5039474;28;20100;-47
2021/12/16 07:24:12;;;;;;;21.25;15.13;;;9.40;74.80;;;;;;5028039;28;20526;-46
2021/12/16 07:26:39;;;;;;;20.95;15.23;;;9.40;75.00;;;;;;5035470;28;20034;-45
2021/12/16 07:29:07;;;;;;;18.27;13.13;;;9.30;74.80;;;;;;5020000;28;20107;-49
2021/12/16 07:31:36;;;;;;;18.30;13.00;;;9.30;74.60;;;;;;5036270;28;20042;-49
2021/12/16 07:34:04;;;;;;;18.30;12.45;;;9.30;74.30;;;;;;4995011;28;20037;-45
2021/12/16 07:36:33;;;;;;;18.85;12.77;;;9.30;74.10;;;;;;5020022;28;20508;-48
2021/12/16 07:39:02;;;;;;;17.52;13.32;;;9.30;73.90;;;;;;5020604;28;20030;-44
2021/12/16 07:41:33;;;;;;;20.10;13.32;;;9.30;73.80;;;;;;5018154;28;20546;-48
2021/12/16 07:44:10;;;;;;;18.73;12.93;;;9.20;73.90;;;;;;5021032;28;20038;-45
2021/12/16 07:46:39;;;;;;;19.30;12.30;;;9.20;73.90;;;;;;5035833;28;20044;-45
2021/12/16 07:49:08;;;;;;;15.27;11.77;;;9.20;73.80;;;;;;5022743;28;20053;-44
2021/12/16 07:51:36;;;;;;;18.98;12.40;;;9.10;73.70;;;;;;5022490;28;20037;-48
2021/12/16 07:54:04;;;;;;;16.05;12.07;;;9.10;73.80;;;;;;5023140;28;20069;-49
2021/12/16 07:56:32;;;;;;;17.58;12.43;;;9.10;73.90;;;;;;5030241;28;20037;-47
2021/12/16 07:58:59;;;;;;;27.17;14.35;;;9.00;73.90;;;;;;5025405;28;20481;-47
2021/12/16 08:01:27;;;;;;;18.63;12.90;;;9.00;73.90;;;;;;5021741;28;20033;-45
2021/12/16 08:03:55;;;;;;;16.63;12.25;;;9.00;73.90;;;;;;5022455;28;20099;-46
2021/12/16 08:06:26;;;;;;;15.68;12.23;;;9.00;74.00;;;;;;5022814;28;20044;-46
2021/12/16 08:08:57;;;;;;;17.55;11.60;;;9.00;74.20;;;;;;5023097;28;20096;-49
2021/12/16 08:11:27;;;;;;;13.20;11.20;;;9.00;74.30;;;;;;5031083;28;20032;-48
2021/12/16 08:14:00;;;;;;;14.90;10.82;;;9.00;74.40;;;;;;5031726;28;20412;-47
2021/12/16 08:16:26;;;;;;;15.43;10.45;;;9.00;74.40;;;;;;5015797;28;20575;-48
2021/12/16 08:18:53;;;;;;;14.48;10.32;;;9.00;74.40;;;;;;5012301;28;20088;-48
2021/12/16 08:21:23;;;;;;;13.45;10.45;;;9.00;74.50;;;;;;5024606;28;20099;-45
2021/12/16 08:23:50;;;;;;;17.08;11.95;;;9.00;74.70;;;;;;5027292;28;20120;-48
2021/12/16 08:26:18;;;;;;;15.75;12.18;;;9.00;75.00;;;;;;5026527;28;20052;-48
2021/12/16 08:28:45;;;;;;;18.88;13.70;;;9.00;75.50;;;;;;5019977;28;20050;-47
2021/12/16 08:31:14;;;;;;;17.63;12.90;;;9.10;75.80;;;;;;5024235;28;20046;-47
2021/12/16 08:33:44;;;;;;;18.70;13.52;;;9.10;76.10;;;;;;5021623;28;20763;-49
2021/12/16 08:36:11;;;;;;;19.70;14.00;;;9.20;76.30;;;;;;5028593;28;20523;-49
2021/12/16 08:38:38;;;;;;;19.30;13.77;;;9.30;76.40;;;;;;5027187;28;20045;-49
2021/12/16 08:41:22;;;;;;;17.63;12.32;;;9.30;76.50;;;;;;5028195;28;20108;-48
2021/12/16 08:43:49;;;;;;;15.98;13.45;;;9.40;76.30;;;;;;5029841;28;20107;-49
2021/12/16 08:46:19;;;;;;;18.98;12.48;;;9.40;76.10;;;;;;5032039;28;20056;-49
2021/12/16 08:48:48;;;;;;;16.42;11.98;;;9.50;76.00;;;;;;5027908;28;20572;-50
2021/12/16 08:51:18;;;;;;;19.88;14.48;;;9.50;75.70;;;;;;5019670;28;20764;-49
2021/12/16 08:53:45;;;;;;;17.98;12.05;;;9.50;75.50;;;;;;5024197;28;20184;-49
2021/12/16 08:56:13;;;;;;;15.98;12.30;;;9.50;75.50;;;;;;5032238;28;20096;-50
2021/12/16 08:58:40;;;;;;;16.13;12.23;;;9.50;75.40;;;;;;5024438;28;20041;-49
2021/12/16 09:01:18;;;;;;;14.68;12.02;;;9.50;75.30;;;;;;5026020;28;20045;-49
2021/12/16 09:03:45;;;;;;;15.70;11.40;;;9.60;75.30;;;;;;5019322;28;20159;-48
2021/12/16 09:06:12;;;;;;;16.35;12.93;;;9.60;75.20;;;;;;5023681;28;20053;-48
2021/12/16 09:08:40;;;;;;;16.48;12.55;;;9.60;75.20;;;;;;5025059;28;20793;-50
2021/12/16 09:11:13;;;;;;;21.38;14.93;;;9.60;75.30;;;;;;5017903;28;20562;-47
2021/12/16 09:13:41;;;;;;;27.13;18.08;;;9.60;75.50;;;;;;5028736;28;20045;-48
2021/12/16 09:16:13;;;;;;;26.63;17.73;;;9.60;75.80;;;;;;5023250;28;20089;-46
2021/12/16 09:18:44;;;;;;;26.13;18.85;;;9.60;76.00;;;;;;5024369;28;20134;-49
2021/12/16 09:21:15;;;;;;;37.28;25.02;;;9.60;76.10;;;;;;5028165;28;20046;-48
2021/12/16 09:23:44;;;;;;;37.75;23.73;;;9.70;76.70;;;;;;5027083;28;20057;-46
2021/12/16 09:26:13;;;;;;;40.72;25.73;;;9.70;77.20;;;;;;5025241;28;20096;-47
2021/12/16 09:28:40;;;;;;;39.17;27.08;;;9.70;77.70;;;;;;5027220;28;20045;-46
2021/12/16 09:31:12;;;;;;;46.97;28.52;;;9.80;78.00;;;;;;5022192;28;20053;-45
2021/12/16 09:33:43;;;;;;;48.63;29.15;;;9.90;78.60;;;;;;5017389;28;20213;-50
2021/12/16 09:36:13;;;;;;;43.85;27.67;;;9.90;79.10;;;;;;5022108;28;20057;-49
2021/12/16 09:38:40;;;;;;;48.45;28.58;;;10.00;79.60;;;;;;5009290;28;20835;-50
2021/12/16 09:41:08;;;;;;;47.33;28.98;;;10.10;79.90;;;;;;5022214;28;20050;-46
2021/12/16 09:43:39;;;;;;;59.05;31.23;;;10.20;80.20;;;;;;5009852;28;20135;-48
2021/12/16 09:46:09;;;;;;;46.83;28.77;;;10.30;80.50;;;;;;5022010;28;20104;-45
2021/12/16 09:48:36;;;;;;;49.30;30.58;;;10.30;80.60;;;;;;5026672;28;20057;-45
2021/12/16 09:51:07;;;;;;;53.15;31.45;;;10.50;80.70;;;;;;5024118;28;20493;-46
2021/12/16 09:53:36;;;;;;;51.33;30.23;;;10.50;80.80;;;;;;5024526;28;20190;-46
2021/12/16 09:56:04;;;;;;;52.47;31.17;;;10.60;80.80;;;;;;5026159;28;20073;-45
2021/12/16 09:58:38;;;;;;;47.40;29.08;;;10.70;80.80;;;;;;5030965;28;20157;-46
2021/12/16 10:01:05;;;;;;;47.95;31.00;;;10.80;80.90;;;;;;5016163;28;20096;-46
2021/12/16 10:03:32;;;;;;;49.90;32.42;;;10.90;80.90;;;;;;5021471;28;20057;-46
2021/12/16 10:05:59;;;;;;;57.50;32.55;;;10.90;81.00;;;;;;5018827;28;20034;-45
2021/12/16 10:08:27;;;;;;;63.67;35.45;;;11.00;81.30;;;;;;5023723;28;20638;-46
2021/12/16 10:10:54;;;;;;;65.60;35.10;;;11.10;81.60;;;;;;5017490;28;20056;-45
2021/12/16 10:13:31;;;;;;;61.10;35.25;;;11.20;81.70;;;;;;5026695;28;20090;-45
2021/12/16 10:18:36;;;;;;;57.42;34.70;;;11.40;81.60;;;;;;5034212;28;20049;-47
2021/12/16 10:21:07;;;;;;;59.47;34.08;;;11.50;82.00;;;;;;5015707;28;20500;-45
2021/12/16 10:23:37;;;;;;;56.63;32.28;;;11.50;81.20;;;;;;5032543;28;20029;-45
2021/12/16 10:26:14;;;;;;;62.60;31.90;;;11.60;81.00;;;;;;5042723;28;20090;-45
2021/12/16 10:28:43;;;;;;;58.50;32.55;;;11.70;80.70;;;;;;5043426;28;20547;-46
2021/12/16 10:31:21;;;;;;;55.60;33.50;;;11.80;80.50;;;;;;5041577;28;20451;-46
2021/12/16 10:33:49;;;;;;;54.47;32.08;;;11.80;80.40;;;;;;5034120;28;20045;-46
2021/12/16 10:36:28;;;;;;;58.28;34.90;;;11.90;80.40;;;;;;5040490;28;20561;-47
2021/12/16 10:39:10;;;;;;;59.75;32.97;;;11.90;80.30;;;;;;5031275;28;20053;-45
2021/12/16 10:41:39;;;;;;;56.72;32.63;;;12.00;80.10;;;;;;5038671;28;20041;-47
2021/12/16 10:44:18;;;;;;;59.65;33.38;;;12.00;79.40;;;;;;5042627;28;20045;-45
2021/12/16 10:47:21;;;;;;;58.22;32.78;;;12.10;79.30;;;;;;5044067;28;20045;-45
2021/12/16 10:49:52;;;;;;;57.85;34.03;;;12.10;79.40;;;;;;4942127;29;20055;-49
2021/12/16 10:52:27;;;;;;;53.33;34.28;;;12.10;78.90;;;;;;5002885;28;20052;-49
2021/12/16 10:54:55;;;;;;;52.70;32.28;;;12.10;78.90;;;;;;5038382;28;20092;-48
2021/12/16 10:57:25;;;;;;;53.38;33.47;;;12.10;78.90;;;;;;5028535;23;20508;-47
2021/12/16 11:00:06;;;;;;;54.92;34.58;;;12.10;79.00;;;;;;5041776;28;20095;-45
2021/12/16 11:02:36;;;;;;;56.00;33.22;;;12.10;79.20;;;;;;5022894;28;20041;-46
2021/12/16 11:05:17;;;;;;;52.67;32.08;;;12.10;79.00;;;;;;5039775;28;20056;-47
2021/12/16 11:07:47;;;;;;;59.00;34.50;;;12.10;79.00;;;;;;5022343;28;20046;-44
2021/12/16 11:10:20;;;;;;;53.78;34.35;;;12.10;79.30;;;;;;4999223;28;20046;-47
2021/12/16 11:12:57;;;;;;;56.72;33.70;;;12.20;79.70;;;;;;5021383;28;20099;-47
2021/12/16 11:15:45;;;;;;;55.67;34.63;;;12.20;80.20;;;;;;5006356;28;20041;-44
2021/12/16 11:18:23;;;;;;;49.00;31.13;;;12.30;80.60;;;;;;5011785;28;20050;-44
2021/12/16 11:20:59;;;;;;;49.50;31.88;;;12.40;80.40;;;;;;5017549;28;20065;-45
2021/12/16 11:23:34;;;;;;;47.42;32.20;;;12.40;80.20;;;;;;5019270;28;20033;-48
2021/12/16 11:26:05;;;;;;;49.00;29.85;;;12.50;80.10;;;;;;5034256;28;20054;-47
2021/12/16 11:28:35;;;;;;;49.38;30.90;;;12.60;80.00;;;;;;5022617;28;20576;-48
2021/12/16 11:31:12;;;;;;;48.10;30.33;;;12.70;79.80;;;;;;5015718;28;20520;-47
2021/12/16 11:33:43;;;;;;;44.40;28.13;;;12.80;79.60;;;;;;5021078;28;20037;-45
2021/12/16 11:36:11;;;;;;;46.08;29.52;;;12.90;79.30;;;;;;5031924;28;20451;-44
2021/12/16 11:38:47;;;;;;;45.15;27.35;;;12.90;79.00;;;;;;5033264;28;20053;-44
2021/12/16 11:41:25;;;;;;;41.80;28.35;;;13.00;78.90;;;;;;5027654;28;20727;-45
2021/12/16 11:43:54;;;;;;;39.20;25.83;;;13.10;78.80;;;;;;5024688;28;20068;-44
2021/12/16 11:46:41;;;;;;;42.95;27.02;;;13.20;78.60;;;;;;5031987;28;20061;-47
2021/12/16 11:49:21;;;;;;;44.20;27.75;;;13.30;78.30;;;;;;5022839;28;20046;-45
2021/12/16 11:52:13;;;;;;;43.35;28.05;;;13.30;78.00;;;;;;5032428;28;20556;-44
2021/12/16 11:54:46;;;;;;;44.05;26.55;;;13.40;77.70;;;;;;5033434;28;20049;-45
2021/12/16 11:57:29;;;;;;;43.70;27.48;;;13.40;77.50;;;;;;5018263;28;20052;-44
2021/12/16 12:00:19;;;;;;;43.47;27.20;;;13.50;77.30;;;;;;5024746;28;20489;-45
2021/12/16 12:02:54;;;;;;;36.38;24.42;;;13.50;77.20;;;;;;5032395;28;20050;-47
2021/12/16 12:05:42;;;;;;;45.20;29.27;;;13.60;77.30;;;;;;5020702;28;20509;-44
2021/12/16 12:08:23;;;;;;;37.08;25.42;;;13.60;77.20;;;;;;5016504;28;20429;-45
2021/12/16 12:11:06;;;;;;;33.78;24.35;;;13.70;77.20;;;;;;5033172;28;20037;-44
2021/12/16 12:13:37;;;;;;;;;;;13.70;77.10;;;;;;5033151;28;20087;-45
2021/12/16 12:16:07;;;;;;;36.10;22.45;;;13.80;77.20;;;;;;5014735;28;19976;-45
2021/12/16 12:18:47;;;;;;;37.13;24.00;;;13.80;76.70;;;;;;5030278;28;20087;-46
2021/12/16 12:21:25;;;;;;;35.03;24.02;;;13.90;76.30;;;;;;5032172;28;20449;-44
2021/12/16 12:24:04;;;;;;;37.72;24.52;;;13.90;76.10;;;;;;5031995;28;20045;-46
2021/12/16 12:26:35;;;;;;;33.08;23.75;;;13.90;76.10;;;;;;5015798;28;20092;-45
2021/12/16 12:29:31;;;;;;;39.40;25.40;;;13.90;75.90;;;;;;5011689;28;20709;-45
2021/12/16 12:32:05;;;;;;;32.15;23.50;;;14.00;76.30;;;;;;5024464;28;20049;-44
2021/12/16 12:34:34;;;;;;;35.72;24.23;;;14.00;75.40;;;;;;4993803;28;20042;-46
2021/12/16 12:37:05;;;;;;;33.40;23.10;;;14.00;75.40;;;;;;4987639;28;20062;-50
2021/12/16 12:39:39;;;;;;;37.03;24.20;;;13.90;75.20;;;;;;4995946;28;20033;-48
2021/12/16 12:42:07;;;;;;;37.92;23.48;;;13.90;75.30;;;;;;5016759;28;20045;-50
2021/12/16 12:44:35;;;;;;;35.22;23.63;;;13.90;75.30;;;;;;5001098;28;20084;-45
2021/12/16 12:47:05;;;;;;;30.13;20.88;;;13.90;75.40;;;;;;5025240;28;20049;-50
2021/12/16 12:49:32;;;;;;;31.67;22.50;;;13.90;75.30;;;;;;4993280;28;20050;-46
2021/12/16 12:52:20;;;;;;;29.80;21.42;;;13.80;75.20;;;;;;5002835;28;20096;-44
2021/12/16 12:54:58;;;;;;;31.88;20.45;;;13.80;75.30;;;;;;5002779;28;20038;-49
2021/12/16 12:57:31;;;;;;;33.28;22.27;;;13.80;75.40;;;;;;5006029;28;20087;-45
2021/12/16 12:59:58;;;;;;;34.80;21.55;;;13.80;75.40;;;;;;4996488;28;20465;-45
2021/12/16 13:02:34;;;;;;;32.90;22.95;;;13.80;75.40;;;;;;4997897;28;20968;-47
2021/12/16 13:05:04;;;;;;;34.22;22.15;;;14.00;75.50;;;;;;5002557;28;20123;-48
2021/12/16 13:07:35;;;;;;;34.35;22.13;;;13.70;75.30;;;;;;5011087;28;20576;-46
2021/12/16 13:10:19;;;;;;;33.67;22.92;;;13.70;75.40;;;;;;5001186;28;20073;-46
2021/12/16 13:13:05;;;;;;;32.33;22.05;;;13.70;75.50;;;;;;5005283;28;20261;-44
2021/12/16 13:24:16;;;;;;;32.25;22.42;;;13.70;75.50;;;;;;5000927;28;20046;-49
2021/12/16 13:27:04;;;;;;;36.88;22.77;;;13.70;75.60;;;;;;5021436;28;20143;-49
2021/12/16 13:29:54;;;;;;;32.90;23.75;;;13.70;75.60;;;;;;4995570;28;20050;-49
2021/12/16 13:32:29;;;;;;;33.75;23.05;;;13.70;75.70;;;;;;5001598;28;20465;-47
2021/12/16 13:35:22;;;;;;;33.53;22.10;;;13.70;75.80;;;;;;5003895;28;20046;-48
2021/12/16 13:37:53;;;;;;;32.63;21.48;;;13.70;75.30;;;;;;4999004;28;20069;-44
2021/12/16 13:40:22;;;;;;;30.17;21.60;;;13.70;75.30;;;;;;5002578;28;20038;-47
2021/12/16 13:43:02;;;;;;;32.72;22.67;;;13.70;75.50;;;;;;5000767;28;20104;-49
2021/12/16 13:46:06;;;;;;;33.38;23.70;;;13.70;75.30;;;;;;5008373;28;20038;-49
2021/12/16 13:58:03;;;;;;;28.23;19.55;;;13.70;75.40;;;;;;4997828;28;20501;-48
2021/12/16 14:03:51;;;;;;;34.08;22.75;;;13.80;76.10;;;;;;5006433;28;20047;-49
2021/12/16 14:06:52;;;;;;;35.22;23.70;;;13.90;76.10;;;;;;5000804;28;21459;-47
2021/12/16 14:09:27;;;;;;;33.97;22.92;;;13.90;76.10;;;;;;5001140;28;20056;-49
2021/12/16 14:12:52;;;;;;;31.73;22.58;;;14.00;76.20;;;;;;5021172;28;20103;-45
2021/12/16 14:17:57;;;;;;;33.50;22.70;;;14.10;75.90;;;;;;4993517;28;20038;-50
2021/12/16 14:23:58;;;;;;;34.72;22.88;;;14.30;75.40;;;;;;4999661;28;20038;-47
2021/12/16 14:34:54;;;;;;;35.22;22.35;;;14.40;74.90;;;;;;5001975;28;20042;-44
2021/12/16 14:37:23;;;;;;;32.90;24.52;;;14.30;74.80;;;;;;5003776;28;20076;-49
2021/12/16 14:43:13;;;;;;;34.42;23.77;;;14.30;74.60;;;;;;5005827;28;20050;-47
2021/12/16 14:45:43;;;;;;;32.58;24.58;;;14.30;74.60;;;;;;5002254;28;20452;-50
2021/12/16 14:50:46;;;;;;;44.28;26.80;;;14.30;74.50;;;;;;5001749;28;20507;-44
2021/12/16 14:53:18;;;;;;;41.60;26.63;;;14.20;74.50;;;;;;4992930;28;20101;-45
2021/12/16 14:55:47;;;;;;;42.42;27.80;;;14.20;74.50;;;;;;5001820;28;20099;-44
2021/12/16 14:58:14;;;;;;;35.50;26.15;;;14.20;74.50;;;;;;4994422;28;20034;-46
2021/12/16 15:00:47;;;;;;;39.53;27.60;;;14.10;74.50;;;;;;5001481;28;20042;-49
2021/12/16 15:03:26;;;;;;;39.58;26.33;;;14.10;74.50;;;;;;4995781;28;20509;-47
2021/12/16 15:06:00;;;;;;;43.70;28.02;;;14.10;74.50;;;;;;5011438;28;20043;-49
2021/12/16 15:08:54;;;;;;;35.97;26.30;;;14.00;74.50;;;;;;4985254;28;20049;-46
2021/12/16 15:11:33;;;;;;;36.30;25.23;;;14.00;74.60;;;;;;5001079;28;20049;-46
2021/12/16 15:14:06;;;;;;;40.20;27.58;;;14.00;74.60;;;;;;4998410;28;20038;-47
2021/12/16 15:39:09;;;;;;;34.13;24.75;;;13.50;74.50;;;;;;4994283;28;20092;-48
2021/12/16 15:44:20;;;;;;;33.00;23.35;;;13.50;74.40;;;;;;4998161;28;20045;-47
2021/12/16 15:46:50;;;;;;;35.42;24.30;;;13.40;74.40;;;;;;5016923;28;20053;-49
2021/12/16 15:49:18;;;;;;;38.63;26.33;;;13.30;74.60;;;;;;4991422;28;20050;-49
2021/12/16 15:51:50;;;;;;;41.03;27.50;;;13.30;75.00;;;;;;5002115;28;20061;-48
2021/12/16 15:54:22;;;;;;;43.30;28.08;;;13.20;75.30;;;;;;4997685;28;20029;-49
2021/12/16 15:56:51;;;;;;;41.35;27.65;;;13.20;75.50;;;;;;5019758;28;20080;-49
2021/12/16 15:59:22;;;;;;;34.37;23.57;;;13.10;75.70;;;;;;4989213;28;20085;-49
2021/12/16 16:01:51;;;;;;;31.75;22.58;;;13.10;75.70;;;;;;5007428;28;20721;-50
2021/12/16 16:04:23;;;;;;;30.58;21.50;;;13.10;75.60;;;;;;5000056;28;20050;-47
2021/12/16 16:06:56;;;;;;;33.37;22.43;;;13.10;75.60;;;;;;5010184;28;20046;-48
2021/12/16 16:09:29;;;;;;;33.33;23.60;;;13.10;75.70;;;;;;4994844;28;20703;-49
2021/12/16 16:11:56;;;;;;;33.60;22.23;;;13.10;75.80;;;;;;5016856;28;20034;-49
2021/12/16 16:14:27;;;;;;;34.05;22.60;;;13.00;75.70;;;;;;4994120;28;20060;-49
2021/12/16 16:16:57;;;;;;;32.00;22.38;;;13.00;75.80;;;;;;5008893;28;20574;-49
2021/12/16 16:19:37;;;;;;;29.98;21.67;;;13.00;75.90;;;;;;5001552;28;20088;-47
2021/12/16 16:22:05;;;;;;;30.52;19.70;;;13.00;75.90;;;;;;5008718;28;20464;-46
2021/12/16 16:24:41;;;;;;;27.33;19.23;;;13.00;76.00;;;;;;5000094;28;20045;-46
2021/12/16 16:27:15;;;;;;;27.00;19.52;;;13.00;75.90;;;;;;5011373;28;20456;-49
2021/12/16 16:29:45;;;;;;;32.08;22.98;;;12.90;75.90;;;;;;5003934;28;20046;-49
2021/12/16 16:32:12;;;;;;;27.45;19.50;;;12.90;76.00;;;;;;5007700;28;20508;-47